createdAt,value
2024-02-09T00:00:09.235Z,98653.53
2024-02-09T00:02:37.380Z,98648.06
2024-02-09T00:05:07.011Z,98641.78
2024-02-09T00:07:33.863Z,98649.91
2024-02-09T00:10:00.712Z,98644.44
2024-02-09T00:12:27.438Z,98638.16
2024-02-09T00:14:54.104Z,98623.22
2024-02-09T00:17:21.675Z,98617.13
2024-02-09T00:19:48.383Z,98610.84
2024-02-09T00:22:15.247Z,98610.50
2024-02-09T00:24:43.565Z,98609.31
2024-02-09T00:27:10.742Z,98598.72
2024-02-09T00:29:37.835Z,98599.16
2024-02-09T00:32:05.723Z,98589.31
2024-02-09T00:34:36.327Z,98584.47
2024-02-09T00:37:03.277Z,98574.63
2024-02-09T00:39:34.662Z,98576.03
2024-02-09T00:42:03.433Z,98571.50
2024-02-09T00:44:30.397Z,98567.63
2024-02-09T00:46:57.533Z,98562.91
2024-02-09T00:49:24.149Z,98563.72
2024-02-09T00:51:54.857Z,98549.13
2024-02-09T00:54:22.660Z,98545.41
2024-02-09T00:56:49.855Z,98544.22
2024-02-09T00:59:20.071Z,98539.88
2024-02-09T01:01:54.313Z,98528.47
2024-02-09T01:04:28.933Z,98528.91
2024-02-09T01:06:56.700Z,98527.75
2024-02-09T01:09:26.434Z,98523.81
2024-02-09T01:11:53.166Z,98518.50
2024-02-09T01:14:38.505Z,98504.50
2024-02-09T01:17:23.944Z,98506.72
2024-02-09T01:20:10.429Z,98494.28
2024-02-09T01:22:55.485Z,98497.28
2024-02-09T01:25:41.097Z,98491.97
2024-02-09T01:28:26.605Z,98482.09
2024-02-09T01:31:11.571Z,98478.97
2024-02-09T01:33:57.116Z,98474.28
2024-02-09T01:36:42.405Z,98471.94
2024-02-09T01:39:27.591Z,98474.75
2024-02-09T01:42:13.270Z,98465.69
2024-02-09T01:44:58.500Z,98457.41
2024-02-09T01:47:44.072Z,98464.75
2024-02-09T01:50:29.985Z,98456.66
2024-02-09T01:53:16.601Z,98449.38
2024-02-09T01:56:02.142Z,98440.66
2024-02-09T01:58:47.357Z,98446.63
2024-02-09T02:01:34.019Z,98433.75
2024-02-09T02:04:20.080Z,98424.28
2024-02-09T02:07:06.115Z,98429.22
2024-02-09T02:09:51.206Z,98426.28
2024-02-09T02:12:36.852Z,98431.06
2024-02-09T02:15:22.354Z,98432.25
2024-02-09T02:18:07.924Z,98416.44
2024-02-09T02:20:53.201Z,98411.72
2024-02-09T02:23:49.412Z,98411.34
2024-02-09T02:26:35.005Z,98406.59
2024-02-09T02:29:20.252Z,98394.94
2024-02-09T02:32:05.523Z,98395.38
2024-02-09T02:34:52.084Z,98377.97
2024-02-09T02:37:37.176Z,98381.75
2024-02-09T02:40:23.048Z,98371.88
2024-02-09T02:42:49.690Z,98372.88
2024-02-09T02:45:16.374Z,98364.41
2024-02-09T02:48:03.138Z,98356.88
2024-02-09T02:50:55.870Z,98350.53
2024-02-09T02:53:41.332Z,98349.19
2024-02-09T02:56:26.357Z,98335.91
2024-02-09T02:59:11.793Z,98325.25
2024-02-09T03:01:57.393Z,98322.13
2024-02-09T03:04:24.286Z,98321.72
2024-02-09T03:07:13.295Z,98321.31
2024-02-09T03:09:37.857Z,98322.91
2024-02-09T03:12:05.090Z,98313.00
2024-02-09T03:14:31.803Z,98316.19
2024-02-09T03:16:58.581Z,98310.63
2024-02-09T03:19:25.430Z,98299.94
2024-02-09T03:21:55.599Z,98298.56
2024-02-09T03:24:22.551Z,98298.75
2024-02-09T03:26:49.338Z,98291.63
2024-02-09T03:29:15.971Z,98291.41
2024-02-09T03:31:43.174Z,98285.50
2024-02-09T03:34:10.327Z,98276.59
2024-02-09T03:36:37.304Z,98275.59
2024-02-09T03:39:03.995Z,98281.72
2024-02-09T03:41:32.902Z,98277.53
2024-02-09T03:44:08.878Z,98275.38
2024-02-09T03:46:35.727Z,98267.03
2024-02-09T03:49:02.910Z,98271.81
2024-02-09T03:51:29.702Z,98269.78
2024-02-09T03:53:56.315Z,98265.00
2024-02-09T03:56:23.000Z,98264.19
2024-02-09T03:58:49.726Z,98263.16
2024-02-09T04:01:16.701Z,98262.06
2024-02-09T04:03:43.797Z,98262.94
2024-02-09T04:06:10.758Z,98256.88
2024-02-09T04:08:37.610Z,98256.59
2024-02-09T04:11:04.487Z,98256.31
2024-02-09T04:13:31.292Z,98246.50
2024-02-09T04:16:01.441Z,98251.03
2024-02-09T04:18:30.748Z,98240.16
2024-02-09T04:20:57.783Z,98243.31
2024-02-09T04:23:24.632Z,98242.25
2024-02-09T04:25:51.354Z,98236.66
2024-02-09T04:28:19.422Z,98245.56
2024-02-09T04:30:48.088Z,98238.97
2024-02-09T04:33:17.678Z,98237.94
2024-02-09T04:35:44.768Z,98235.38
2024-02-09T04:38:13.998Z,98230.81
2024-02-09T04:40:40.831Z,98227.59
2024-02-09T04:43:07.718Z,98225.78
2024-02-09T04:45:34.629Z,98219.34
2024-02-09T04:48:01.549Z,98220.69
2024-02-09T04:50:28.286Z,98216.34
2024-02-09T04:52:55.916Z,98217.94
2024-02-09T04:55:23.087Z,98208.34
2024-02-09T04:57:50.101Z,98200.94
2024-02-09T05:00:17.498Z,98197.94
2024-02-09T05:02:47.949Z,98199.31
2024-02-09T05:05:15.075Z,98194.56
2024-02-09T05:07:42.088Z,98196.34
2024-02-09T05:10:09.462Z,98194.56
2024-02-09T05:12:36.680Z,98195.13
2024-02-09T05:15:03.613Z,98198.09
2024-02-09T05:17:30.232Z,98185.59
2024-02-09T05:19:59.969Z,98187.53
2024-02-09T05:22:30.199Z,98188.03
2024-02-09T05:24:57.116Z,98177.50
2024-02-09T05:27:23.913Z,98180.63
2024-02-09T05:29:51.053Z,98182.19
2024-02-09T05:32:17.679Z,98180.19
2024-02-09T05:34:47.540Z,98175.38
2024-02-09T05:37:16.444Z,98172.72
2024-02-09T05:39:44.496Z,98169.91
2024-02-09T05:42:11.192Z,98169.34
2024-02-09T05:44:38.027Z,98168.34
2024-02-09T05:47:04.984Z,98171.25
2024-02-09T05:49:31.961Z,98171.50
2024-02-09T05:51:59.074Z,98167.13
2024-02-09T05:54:26.526Z,98164.31
2024-02-09T05:56:53.391Z,98159.94
2024-02-09T05:59:22.929Z,98159.47
2024-02-09T06:01:49.894Z,98160.84
2024-02-09T06:04:16.868Z,98157.81
2024-02-09T06:06:47.195Z,98163.22
2024-02-09T06:09:14.044Z,98155.22
2024-02-09T06:11:40.627Z,98158.19
2024-02-09T06:14:07.760Z,98153.00
2024-02-09T06:16:34.492Z,98156.38
2024-02-09T06:19:01.337Z,98149.63
2024-02-09T06:21:28.254Z,98155.00
2024-02-09T06:23:54.869Z,98148.59
2024-02-09T06:26:25.201Z,98147.38
2024-02-09T06:28:53.147Z,98150.19
2024-02-09T06:31:32.600Z,98145.03
2024-02-09T06:34:00.486Z,98145.38
2024-02-09T06:36:27.718Z,98150.34
2024-02-09T06:38:55.345Z,98154.47
2024-02-09T06:41:22.624Z,98152.13
2024-02-09T06:43:49.964Z,98144.69
2024-02-09T06:46:19.266Z,98149.69
2024-02-09T06:48:48.452Z,98142.69
2024-02-09T06:51:20.352Z,98141.34
2024-02-09T06:53:47.981Z,98148.22
2024-02-09T06:56:16.212Z,98146.44
2024-02-09T06:58:46.742Z,98158.56
2024-02-09T07:01:13.838Z,98147.41
2024-02-09T07:03:44.322Z,98150.56
2024-02-09T07:06:11.665Z,98150.56
2024-02-09T07:08:41.359Z,98155.75
2024-02-09T07:11:09.336Z,98153.16
2024-02-09T07:13:36.193Z,98152.97
2024-02-09T07:16:04.392Z,98151.50
2024-02-09T07:18:32.076Z,98146.31
2024-02-09T07:20:58.739Z,98146.88
2024-02-09T07:23:27.532Z,98151.81
2024-02-09T07:25:55.695Z,98151.81
2024-02-09T07:28:24.895Z,98157.38
2024-02-09T07:30:51.578Z,98151.97
2024-02-09T07:33:18.478Z,98158.72
2024-02-09T07:35:45.132Z,98154.34
2024-02-09T07:38:12.787Z,98148.38
2024-02-09T07:40:39.618Z,98152.53
2024-02-09T07:43:06.519Z,98151.53
2024-02-09T07:45:33.445Z,98151.28
2024-02-09T07:48:00.962Z,98157.25
2024-02-09T07:50:28.493Z,98157.81
2024-02-09T07:52:55.408Z,98155.22
2024-02-09T07:55:25.194Z,98155.78
2024-02-09T07:57:51.983Z,98150.41
2024-02-09T08:00:20.899Z,98147.38
2024-02-09T08:02:48.350Z,98139.16
2024-02-09T08:05:20.122Z,98145.69
2024-02-09T08:07:50.670Z,98137.72
2024-02-09T08:10:18.541Z,98146.81
2024-02-09T08:12:48.678Z,98136.25
2024-02-09T08:15:15.398Z,98144.81
2024-02-09T08:17:53.087Z,98143.81
2024-02-09T08:20:21.054Z,98144.34
2024-02-09T08:22:47.786Z,98143.91
2024-02-09T08:25:15.325Z,98142.69
2024-02-09T08:27:42.207Z,98139.88
2024-02-09T08:30:10.559Z,98135.03
2024-02-09T08:32:39.197Z,98137.41
2024-02-09T08:35:07.305Z,98140.75
2024-02-09T08:37:34.425Z,98141.53
2024-02-09T08:40:01.607Z,98139.75
2024-02-09T08:42:28.374Z,98132.53
2024-02-09T08:44:55.425Z,98138.53
2024-02-09T08:47:25.349Z,98133.91
2024-02-09T08:49:52.157Z,98132.66
2024-02-09T08:52:19.631Z,98139.19
2024-02-09T08:54:47.281Z,98132.78
2024-02-09T08:57:19.828Z,98138.53
2024-02-09T08:59:46.557Z,98139.63
2024-02-09T09:02:13.496Z,98141.53
2024-02-09T09:04:40.722Z,98144.69
2024-02-09T09:07:07.598Z,98150.44
2024-02-09T09:09:35.063Z,98145.03
2024-02-09T09:12:06.070Z,98154.03
2024-02-09T09:14:35.379Z,98151.69
2024-02-09T09:17:12.508Z,98148.31
2024-02-09T09:19:47.831Z,98140.53
2024-02-09T09:22:14.727Z,98144.69
2024-02-09T09:24:41.364Z,98143.69
2024-02-09T09:27:09.664Z,98143.25
2024-02-09T09:29:36.632Z,98150.53
2024-02-09T09:32:03.418Z,98138.72
2024-02-09T09:34:32.272Z,98143.88
2024-02-09T09:36:59.190Z,98142.09
2024-02-09T09:39:28.016Z,98140.84
2024-02-09T09:41:57.834Z,98134.69
2024-02-09T09:44:28.837Z,98143.25
2024-02-09T09:46:55.613Z,98153.13
2024-02-09T09:49:24.239Z,98151.31
2024-02-09T09:51:52.661Z,98153.69
2024-02-09T09:54:23.656Z,98147.50
2024-02-09T09:56:50.747Z,98142.63
2024-02-09T09:59:20.761Z,98150.00
2024-02-09T10:01:52.212Z,98154.16
2024-02-09T10:04:19.821Z,98158.88
2024-02-09T10:06:47.062Z,98152.44
2024-02-09T10:09:14.213Z,98140.63
2024-02-09T10:11:42.429Z,98160.09
2024-02-09T10:14:17.106Z,98157.50
2024-02-09T10:16:46.236Z,98158.84
2024-02-09T10:19:18.291Z,98171.13
2024-02-09T10:21:56.155Z,98164.25
2024-02-09T10:24:25.266Z,98169.84
2024-02-09T10:26:52.127Z,98172.00
2024-02-09T10:29:24.013Z,98182.13
2024-02-09T10:31:54.398Z,98179.53
2024-02-09T10:34:21.634Z,98170.75
2024-02-09T10:36:49.166Z,98182.69
2024-02-09T10:39:15.982Z,98181.13
2024-02-09T10:41:47.736Z,98182.91
2024-02-09T10:44:16.598Z,98172.09
2024-02-09T10:46:47.910Z,98172.16
2024-02-09T10:49:17.071Z,98176.34
2024-02-09T10:51:45.805Z,98179.50
2024-02-09T10:54:19.010Z,98176.69
2024-02-09T10:56:48.138Z,98184.00
2024-02-09T10:59:15.489Z,98171.69
2024-02-09T11:01:43.741Z,98171.31
2024-02-09T11:04:11.453Z,98176.91
2024-02-09T11:06:39.912Z,98180.16
2024-02-09T11:09:08.357Z,98174.28
2024-02-09T11:11:35.597Z,98174.03
2024-02-09T11:14:06.137Z,98177.25
2024-02-09T11:16:39.772Z,98179.94
2024-02-09T11:19:11.093Z,98179.56
2024-02-09T11:21:37.780Z,98175.00
2024-02-09T11:24:04.576Z,98173.53
2024-02-09T11:26:38.221Z,98178.47
2024-02-09T11:29:04.833Z,98174.09
2024-02-09T11:31:33.929Z,98169.91
2024-02-09T11:34:02.371Z,98173.75
2024-02-09T11:36:29.338Z,98182.78
2024-02-09T11:38:57.685Z,98171.66
2024-02-09T11:41:29.457Z,98181.47
2024-02-09T11:43:58.534Z,98186.66
2024-02-09T11:46:25.163Z,98185.38
2024-02-09T11:48:52.837Z,98181.06
2024-02-09T11:51:21.777Z,98185.91
2024-02-09T11:53:52.400Z,98186.75
2024-02-09T11:56:20.347Z,98180.53
2024-02-09T11:58:50.946Z,98178.16
2024-02-09T12:01:20.221Z,98178.16
2024-02-09T12:03:47.099Z,98177.41
2024-02-09T12:06:14.125Z,98178.97
2024-02-09T12:08:41.312Z,98173.50
2024-02-09T12:11:08.072Z,98175.91
2024-02-09T12:13:34.752Z,98181.63
2024-02-09T12:16:01.866Z,98185.78
2024-02-09T12:18:28.852Z,98189.72
2024-02-09T12:20:55.672Z,98193.44
2024-02-09T12:23:25.830Z,98183.38
2024-02-09T12:25:53.238Z,98194.09
2024-02-09T12:28:21.555Z,98185.53
2024-02-09T12:30:48.186Z,98186.31
2024-02-09T12:33:21.189Z,98192.81
2024-02-09T12:35:48.932Z,98188.97
2024-02-09T12:38:19.096Z,98191.81
2024-02-09T12:40:46.201Z,98200.59
2024-02-09T12:43:23.137Z,98209.44
2024-02-09T12:45:49.974Z,98197.78
2024-02-09T12:48:23.050Z,98204.53
2024-02-09T12:50:57.567Z,98212.91
2024-02-09T12:53:25.173Z,98202.28
2024-02-09T12:55:52.136Z,98211.31
2024-02-09T12:58:22.367Z,98214.16
2024-02-09T13:00:49.365Z,98212.34
2024-02-09T13:03:16.880Z,98214.94
2024-02-09T13:05:43.565Z,98210.31
2024-02-09T13:08:13.225Z,98220.47
2024-02-09T13:10:39.772Z,98223.59
2024-02-09T13:13:09.560Z,98222.81
2024-02-09T13:15:36.973Z,98225.94
2024-02-09T13:18:03.973Z,98224.69
2024-02-09T13:20:30.584Z,98223.44
2024-02-09T13:22:58.777Z,98221.94
2024-02-09T13:25:25.689Z,98217.06
2024-02-09T13:27:52.704Z,98220.75
2024-02-09T13:30:21.301Z,98221.84
2024-02-09T13:32:49.134Z,98216.19
2024-02-09T13:35:19.106Z,98219.88
2024-02-09T13:37:46.718Z,98208.53
2024-02-09T13:40:18.232Z,98217.97
2024-02-09T13:42:50.979Z,98225.28
2024-02-09T13:45:20.267Z,98221.19
2024-02-09T13:47:47.018Z,98218.31
2024-02-09T13:50:13.843Z,98220.72
2024-02-09T13:52:41.911Z,98225.41
2024-02-09T13:55:15.211Z,98221.00
2024-02-09T13:57:45.922Z,98223.34
2024-02-09T14:00:15.162Z,98227.53
2024-02-09T14:02:41.991Z,98222.59
2024-02-09T14:05:10.502Z,98222.81
2024-02-09T14:07:40.728Z,98223.84
2024-02-09T14:10:09.399Z,98228.00
2024-02-09T14:12:36.198Z,98236.34
2024-02-09T14:15:03.566Z,98229.13
2024-02-09T14:17:31.751Z,98226.28
2024-02-09T14:19:59.741Z,98233.06
2024-02-09T14:22:26.526Z,98232.00
2024-02-09T14:24:53.504Z,98225.78
2024-02-09T14:27:20.263Z,98233.34
2024-02-09T14:29:47.163Z,98238.28
2024-02-09T14:32:14.785Z,98234.94
2024-02-09T14:34:42.376Z,98238.53
2024-02-09T14:37:09.599Z,98232.81
2024-02-09T14:39:37.621Z,98234.06
2024-02-09T14:42:09.953Z,98236.13
2024-02-09T14:44:36.614Z,98229.59
2024-02-09T14:47:03.438Z,98231.66
2024-02-09T14:49:30.266Z,98237.84
2024-02-09T14:51:57.803Z,98241.72
2024-02-09T14:54:24.697Z,98235.75
2024-02-09T14:56:59.204Z,98237.56
2024-02-09T14:59:27.362Z,98233.63
2024-02-09T15:01:55.766Z,98244.03
2024-02-09T15:04:22.863Z,98241.44
2024-02-09T15:06:51.032Z,98238.03
2024-02-09T15:09:22.229Z,98243.47
2024-02-09T15:11:49.391Z,98245.53
2024-02-09T15:14:16.076Z,98239.00
2024-02-09T15:16:43.158Z,98239.75
2024-02-09T15:19:13.262Z,98239.00
2024-02-09T15:21:42.626Z,98244.19
2024-02-09T15:24:09.270Z,98246.47
2024-02-09T15:26:36.774Z,98233.41
2024-02-09T15:29:05.984Z,98241.19
2024-02-09T15:31:33.698Z,98244.28
2024-02-09T15:34:00.445Z,98235.94
2024-02-09T15:36:31.354Z,98241.38
2024-02-09T15:38:57.944Z,98235.38
2024-02-09T15:41:24.621Z,98241.63
2024-02-09T15:43:54.020Z,98237.44
2024-02-09T15:46:20.749Z,98245.47
2024-02-09T15:48:51.428Z,98239.72
2024-02-09T15:51:24.304Z,98242.56
2024-02-09T15:53:53.753Z,98242.00
2024-02-09T15:56:24.531Z,98242.50
2024-02-09T15:58:51.766Z,98240.91
2024-02-09T16:01:19.598Z,98243.22
2024-02-09T16:03:50.743Z,98238.22
2024-02-09T16:06:18.220Z,98230.69
2024-02-09T16:08:45.009Z,98232.19
2024-02-09T16:11:12.016Z,98230.06
2024-02-09T16:13:39.334Z,98220.13
2024-02-09T16:16:08.811Z,98228.41
2024-02-09T16:18:36.918Z,98223.69
2024-02-09T16:21:03.914Z,98225.94
2024-02-09T16:23:30.664Z,98224.28
2024-02-09T16:26:04.813Z,98238.75
2024-02-09T16:28:34.146Z,98233.22
2024-02-09T16:31:01.450Z,98240.72
2024-02-09T16:33:30.633Z,98240.16
2024-02-09T16:35:57.358Z,98241.16
2024-02-09T16:38:24.729Z,98258.34
2024-02-09T16:40:51.635Z,98243.56
2024-02-09T16:43:21.117Z,98244.56
2024-02-09T16:45:47.981Z,98244.56
2024-02-09T16:48:16.955Z,98244.56
2024-02-09T16:50:44.837Z,98241.97
2024-02-09T16:53:16.351Z,98247.16
2024-02-09T16:55:44.156Z,98247.94
2024-02-09T16:58:11.027Z,98248.19
2024-02-09T17:00:37.800Z,98245.00
2024-02-09T17:03:05.195Z,98252.59
2024-02-09T17:05:32.982Z,98248.19
2024-02-09T17:08:00.258Z,98249.19
2024-02-09T17:10:27.043Z,98247.41
2024-02-09T17:12:55.287Z,98245.00
2024-02-09T17:15:22.609Z,98248.66
2024-02-09T17:17:49.297Z,98253.03
2024-02-09T17:20:16.201Z,98249.91
2024-02-09T17:22:44.346Z,98260.03
2024-02-09T17:25:14.993Z,98252.25
2024-02-09T17:27:46.147Z,98251.25
2024-02-09T17:30:15.921Z,98247.63
2024-02-09T17:32:42.912Z,98254.41
2024-02-09T17:35:09.794Z,98249.19
2024-02-09T17:37:36.512Z,98257.22
2024-02-09T17:40:03.362Z,98254.63
2024-02-09T17:42:30.113Z,98257.44
2024-02-09T17:44:56.751Z,98260.84
2024-02-09T17:47:23.412Z,98265.22
2024-02-09T17:49:52.308Z,98261.28
2024-02-09T17:52:19.338Z,98264.91
2024-02-09T17:54:46.060Z,98271.91
2024-02-09T17:57:12.726Z,98271.38
2024-02-09T17:59:39.360Z,98272.38
2024-02-09T18:02:06.492Z,98273.41
2024-02-09T18:04:35.242Z,98277.81
2024-02-09T18:07:02.375Z,98279.84
2024-02-09T18:09:30.416Z,98266.31
2024-02-09T18:11:57.043Z,98274.09
2024-02-09T18:14:24.391Z,98271.72
2024-02-09T18:16:53.185Z,98272.75
2024-02-09T18:19:19.977Z,98274.81
2024-02-09T18:21:46.695Z,98274.56
2024-02-09T18:24:16.464Z,98276.16
2024-02-09T18:26:43.601Z,98282.91
2024-02-09T18:29:10.341Z,98284.50
2024-02-09T18:31:37.159Z,98290.78
2024-02-09T18:34:03.993Z,98292.38
2024-02-09T18:36:30.637Z,98293.38
2024-02-09T18:38:57.836Z,98289.19
2024-02-09T18:41:24.492Z,98293.81
2024-02-09T18:43:51.337Z,98298.00
2024-02-09T18:46:18.228Z,98291.03
2024-02-09T18:48:44.895Z,98290.22
2024-02-09T18:51:12.384Z,98292.28
2024-02-09T18:53:42.070Z,98300.84
2024-02-09T18:56:09.944Z,98294.88
2024-02-09T18:58:37.456Z,98302.09
2024-02-09T19:01:06.667Z,98292.72
2024-02-09T19:03:34.612Z,98289.34
2024-02-09T19:06:01.768Z,98290.38
2024-02-09T19:08:29.287Z,98294.22
2024-02-09T19:10:57.112Z,98290.03
2024-02-09T19:13:23.735Z,98295.69
2024-02-09T19:15:50.398Z,98293.56
2024-02-09T19:18:19.070Z,98297.41
2024-02-09T19:20:46.145Z,98293.69
2024-02-09T19:23:14.234Z,98294.16
2024-02-09T19:25:41.011Z,98291.78
2024-02-09T19:28:08.423Z,98286.25
2024-02-09T19:30:36.188Z,98288.53
2024-02-09T19:33:03.169Z,98285.59
2024-02-09T19:35:29.913Z,98286.09
2024-02-09T19:37:56.816Z,98279.75
2024-02-09T19:40:23.683Z,98278.66
2024-02-09T19:42:51.074Z,98292.84
2024-02-09T19:45:19.185Z,98284.19
2024-02-09T19:47:51.005Z,98285.66
2024-02-09T19:50:17.827Z,98291.53
2024-02-09T19:52:44.958Z,98286.81
2024-02-09T19:55:13.038Z,98291.41
2024-02-09T19:57:39.876Z,98286.69
2024-02-09T20:00:10.270Z,98289.50
2024-02-09T20:02:44.285Z,98288.94
2024-02-09T20:05:14.963Z,98292.78
2024-02-09T20:07:41.828Z,98294.03
2024-02-09T20:10:10.416Z,98300.66
2024-02-09T20:12:39.817Z,98303.72
2024-02-09T20:15:19.365Z,98310.16
2024-02-09T20:17:47.423Z,98312.94
2024-02-09T20:20:21.124Z,98314.19
2024-02-09T20:22:52.520Z,98306.41
2024-02-09T20:25:19.767Z,98306.22
2024-02-09T20:27:46.847Z,98301.81
2024-02-09T20:30:15.577Z,98301.22
2024-02-09T20:32:43.695Z,98301.47
2024-02-09T20:35:13.076Z,98309.47
2024-02-09T20:37:41.655Z,98304.72
2024-02-09T20:40:10.328Z,98317.13
2024-02-09T20:42:38.136Z,98310.03
2024-02-09T20:45:05.994Z,98307.88
2024-02-09T20:47:36.020Z,98315.09
2024-02-09T20:50:04.117Z,98314.09
2024-02-09T20:52:31.636Z,98315.66
2024-02-09T20:54:58.698Z,98318.03
2024-02-09T20:57:25.349Z,98320.16
2024-02-09T20:59:52.328Z,98317.56
2024-02-09T21:02:22.706Z,98320.16
2024-02-09T21:04:50.513Z,98317.56
2024-02-09T21:07:20.254Z,98320.63
2024-02-09T21:09:47.269Z,98325.22
2024-02-09T21:12:20.373Z,98317.13
2024-02-09T21:14:48.338Z,98316.72
2024-02-09T21:17:15.419Z,98319.56
2024-02-09T21:19:43.923Z,98322.59
2024-02-09T21:22:10.653Z,98321.25
2024-02-09T21:24:37.377Z,98314.47
2024-02-09T21:27:04.133Z,98323.25
2024-02-09T21:29:30.699Z,98326.31
2024-02-09T21:31:59.789Z,98316.94
2024-02-09T21:34:28.120Z,98319.78
2024-02-09T21:36:54.811Z,98318.41
2024-02-09T21:39:21.838Z,98323.59
2024-02-09T21:41:48.586Z,98327.19
2024-02-09T21:44:16.260Z,98321.66
2024-02-09T21:46:43.006Z,98324.69
2024-02-09T21:49:10.136Z,98320.75
2024-02-09T21:51:37.300Z,98320.19
2024-02-09T21:54:07.895Z,98322.44
2024-02-09T21:56:35.040Z,98329.63
2024-02-09T21:59:02.115Z,98324.88
2024-02-09T22:01:29.987Z,98326.69
2024-02-09T22:03:59.170Z,98330.31
2024-02-09T22:06:26.114Z,98332.09
2024-02-09T22:08:52.715Z,98329.28
2024-02-09T22:11:19.602Z,98321.50
2024-02-09T22:13:47.409Z,98319.16
2024-02-09T22:16:14.244Z,98320.72
2024-02-09T22:18:43.140Z,98341.00
2024-02-09T22:21:10.462Z,98329.63
2024-02-09T22:23:45.821Z,98333.78
2024-02-09T22:26:14.891Z,98333.56
2024-02-09T22:28:41.730Z,98331.56
2024-02-09T22:31:11.428Z,98334.72
2024-02-09T22:33:38.155Z,98326.47
2024-02-09T22:36:05.225Z,98334.03
2024-02-09T22:38:32.619Z,98338.00
2024-02-09T22:40:59.815Z,98335.19
2024-02-09T22:43:27.346Z,98338.31
2024-02-09T22:45:55.447Z,98336.31
2024-02-09T22:48:22.868Z,98336.09
2024-02-09T22:50:49.690Z,98335.88
2024-02-09T22:53:16.333Z,98331.47
2024-02-09T22:55:42.965Z,98338.47
2024-02-09T22:58:13.651Z,98328.09
2024-02-09T23:00:40.410Z,98330.13
2024-02-09T23:03:09.633Z,98333.72
2024-02-09T23:05:37.949Z,98330.56
2024-02-09T23:08:05.183Z,98335.19
2024-02-09T23:10:34.653Z,98334.38
2024-02-09T23:13:02.231Z,98336.97
2024-02-09T23:15:31.870Z,98338.00
2024-02-09T23:17:58.707Z,98342.38
2024-02-09T23:20:25.572Z,98338.75
2024-02-09T23:22:54.205Z,98345.53
2024-02-09T23:25:22.506Z,98353.06
2024-02-09T23:27:51.479Z,98351.28
2024-02-09T23:30:18.459Z,98345.09
2024-02-09T23:32:45.240Z,98351.84
2024-02-09T23:35:13.552Z,98349.06
2024-02-09T23:37:43.194Z,98350.19
2024-02-09T23:40:11.584Z,98352.53
2024-02-09T23:42:39.619Z,98357.50
2024-02-09T23:45:06.785Z,98353.34
2024-02-09T23:47:35.328Z,98357.28
2024-02-09T23:50:06.053Z,98362.47
2024-02-09T23:52:32.763Z,98354.69
2024-02-09T23:55:00.259Z,98356.47
2024-02-09T23:57:26.898Z,98360.88
2024-02-09T23:59:53.493Z,98355.69
